Pagrindinis puslapis
METAR-TAF:

METAR-TAF

Oro uostai :

Kokola, Suomija

platuma: 63-43N, ilguma: 023-09E, Aukštis: 25 m

Dabartinis oras

Ataskaita buvo paskelbta 34 minutes, ne 05:50 UTC
Vėjas 8 kt iš Pietų/Pietvakarių, svyruoja nuo Pietų ir Pietvakarių
Temperatūra 20°C
Drėgmė 43%
Slėgis 1022 hPa
Matomumas 10 km arba daugiau
nėra debesų žemiau 1500 m ir nėra kamuolinių lietaus debesų

METAR: EFKK 240550Z AUTO 20008KT 170V230 CAVOK 20/07 Q1022

Laikas: 09:24 (06:24 UTC)

Prognozė

Ataskaita buvo paskelbta 48 minutes, ne 05:36 UTC
Prognozė galioja nuo 24 metu 06 UTC su 24 metu 15 UTC
Vėjas 8 kt iš Pietų/Pietvakarių
Matomumas 10 km arba daugiau
nėra debesų žemiau 1500 m ir nėra kamuolinių lietaus debesų
Tikimybė 30% :
Laikinai
nuo 24 metu 12 UTC su 24 metu 15 UTC
Išsisklaidę debesys ne aukštis 5000 ft, Liūtiniai kamuoliniai debesys.
lietus,

TAF: EFKK 240536Z 2406/2415 20008KT CAVOK PROB30 TEMPO 2412/2415 SHRA SCT050CB

Orai ataskaitas ir orų prognozės (METAR, TAF).

turimą stotys yra geltonos ir raudonos taškus žemėlapyje.

Perkelti pele per norėdami pamatyti stoties vardą.

Tada spustelėkite, norėdami matyti oro stebėjimo ir prognozės.

Norėdami pakeisti žemėlapį: spustelėkite ant žalios mygtukų su juodo kryžiaus žemyn,; žalią mygtuką su brūkšneliu, jei norite nutolinti; arba žalių rodyklių gretimoms žemėlapius.


METAR-TAF: